Time;durP1;ratioP1;P1;durP2;ratioP2;P2;SDS_P1;SDS_P2;PMS_P1;PMS_P2;Temp;Humidity;BMP_temperature;BMP_pressure;BME280_temperature;BME280_humidity;BME280_pressure;Samples;Min_cycle;Max_cycle;Signal;HPM_P1;HPM_P2
2021/09/06 00:02:05;;;;;;;3.97;2.63;;;11.20;99.90;;;;;;5116448;28;20197;-85
2021/09/06 00:04:33;;;;;;;2.33;2.22;;;11.30;99.90;;;;;;5124066;28;20546;-84
2021/09/06 00:07:00;;;;;;;2.80;2.53;;;11.30;99.90;;;;;;5117203;28;20198;-86
2021/09/06 00:09:28;;;;;;;3.25;3.05;;;11.30;99.90;;;;;;5118263;28;20270;-88
2021/09/06 00:11:54;;;;;;;2.65;2.22;;;11.30;99.90;;;;;;5122995;28;20263;-85
2021/09/06 00:14:22;;;;;;;3.40;2.00;;;11.30;99.90;;;;;;5096125;28;20213;-85
2021/09/06 00:16:49;;;;;;;3.72;3.22;;;11.20;99.90;;;;;;5099000;28;20197;-87
2021/09/06 00:19:17;;;;;;;2.65;2.45;;;11.10;99.90;;;;;;5114665;28;20201;-86
2021/09/06 00:21:44;;;;;;;3.72;2.60;;;11.20;99.90;;;;;;5120876;28;20450;-85
2021/09/06 00:24:11;;;;;;;3.15;2.85;;;11.10;99.90;;;;;;5113422;28;20262;-85
2021/09/06 00:26:39;;;;;;;4.43;3.00;;;11.10;99.90;;;;;;5100174;28;20201;-86
2021/09/06 00:29:06;;;;;;;3.50;3.20;;;11.10;99.90;;;;;;5096985;28;20399;-84
2021/09/06 00:31:33;;;;;;;4.53;3.33;;;10.90;99.90;;;;;;5112254;28;20206;-88
2021/09/06 00:34:01;;;;;;;3.00;2.80;;;10.70;99.90;;;;;;5104353;28;20211;-84
2021/09/06 00:36:28;;;;;;;4.50;2.80;;;10.90;99.90;;;;;;5118862;28;20432;-83
2021/09/06 00:38:55;;;;;;;2.58;2.35;;;10.80;99.90;;;;;;5115535;28;20315;-85
2021/09/06 00:41:24;;;;;;;2.72;2.35;;;10.90;99.90;;;;;;5121740;28;20257;-86
2021/09/06 00:43:53;;;;;;;2.70;2.50;;;10.90;99.90;;;;;;5087807;28;20248;-87
2021/09/06 00:46:20;;;;;;;3.00;2.80;;;10.80;99.90;;;;;;5107239;28;20203;-85
2021/09/06 00:48:47;;;;;;;5.82;2.58;;;10.70;99.90;;;;;;5099041;28;20201;-85
2021/09/06 00:51:15;;;;;;;2.30;2.20;;;10.80;99.90;;;;;;5122224;28;20261;-87
2021/09/06 00:53:42;;;;;;;2.72;2.53;;;10.70;99.90;;;;;;5104821;28;20257;-85
2021/09/06 00:56:10;;;;;;;2.10;2.00;;;10.60;99.90;;;;;;5123745;28;20264;-85
2021/09/06 00:58:37;;;;;;;3.72;2.42;;;10.70;99.90;;;;;;5120167;28;20200;-88
2021/09/06 01:01:04;;;;;;;4.88;2.88;;;10.60;99.90;;;;;;5120769;28;20197;-86
2021/09/06 01:03:33;;;;;;;2.78;2.58;;;10.70;99.90;;;;;;5121046;28;20200;-85
2021/09/06 01:06:00;;;;;;;3.60;2.92;;;10.60;99.90;;;;;;5116388;28;20308;-84
2021/09/06 01:08:28;;;;;;;3.83;2.50;;;10.50;99.90;;;;;;5122133;28;20207;-86
2021/09/06 01:10:56;;;;;;;2.90;2.58;;;10.40;99.90;;;;;;5103830;28;20197;-86
2021/09/06 01:13:23;;;;;;;3.60;3.20;;;10.40;99.90;;;;;;5115534;28;20208;-86
2021/09/06 01:15:51;;;;;;;2.83;2.55;;;10.50;99.90;;;;;;5119622;28;20494;-86
2021/09/06 01:18:18;;;;;;;4.43;2.72;;;10.50;99.90;;;;;;5105411;28;20209;-86
2021/09/06 01:20:45;;;;;;;3.10;2.78;;;10.50;99.90;;;;;;5104492;28;20203;-86
2021/09/06 01:23:12;;;;;;;3.65;3.05;;;10.40;99.90;;;;;;5118255;28;20192;-84
2021/09/06 01:25:40;;;;;;;2.58;2.35;;;10.20;99.90;;;;;;5121705;28;20226;-84
2021/09/06 01:28:07;;;;;;;3.22;2.92;;;10.10;99.90;;;;;;5122486;28;20196;-87
2021/09/06 01:30:34;;;;;;;3.50;3.20;;;10.00;99.90;;;;;;5115742;28;20199;-85
2021/09/06 01:33:01;;;;;;;3.30;3.10;;;10.00;99.90;;;;;;5121555;28;20197;-86
2021/09/06 01:35:28;;;;;;;3.30;2.55;;;10.10;99.90;;;;;;5123578;28;20397;-87
2021/09/06 01:37:55;;;;;;;3.83;3.30;;;10.10;99.90;;;;;;5105131;28;20212;-85
2021/09/06 01:40:25;;;;;;;4.18;3.22;;;10.10;99.90;;;;;;5118289;28;20210;-85
2021/09/06 01:42:52;;;;;;;3.70;2.90;;;10.20;99.90;;;;;;5097252;28;20448;-84
2021/09/06 01:45:19;;;;;;;2.72;2.53;;;10.10;99.90;;;;;;5101103;28;20223;-84
2021/09/06 01:47:47;;;;;;;4.18;3.40;;;10.00;99.90;;;;;;5123488;28;20223;-85
2021/09/06 01:50:14;;;;;;;4.30;3.05;;;10.10;99.90;;;;;;5103779;28;20208;-86
2021/09/06 01:52:42;;;;;;;3.58;3.10;;;10.10;99.90;;;;;;5117304;28;20246;-84
2021/09/06 01:55:09;;;;;;;3.25;2.95;;;10.00;99.90;;;;;;5101863;28;20234;-86
2021/09/06 01:57:36;;;;;;;3.00;2.80;;;10.00;99.90;;;;;;5123011;28;20204;-86
2021/09/06 02:00:06;;;;;;;4.63;3.80;;;10.10;99.90;;;;;;5103375;28;20199;-85
2021/09/06 02:02:33;;;;;;;4.85;3.33;;;10.10;99.90;;;;;;5123522;28;20203;-85
2021/09/06 02:05:01;;;;;;;3.53;3.17;;;10.10;99.90;;;;;;5121783;28;20246;-84
2021/09/06 02:07:29;;;;;;;3.88;3.55;;;10.00;99.90;;;;;;5101225;28;20520;-84
2021/09/06 02:09:55;;;;;;;6.78;3.78;;;10.00;99.90;;;;;;5094111;28;20544;-83
2021/09/06 02:12:23;;;;;;;3.25;2.95;;;10.10;99.90;;;;;;5115589;28;20205;-86
2021/09/06 02:14:50;;;;;;;3.60;3.30;;;10.10;99.90;;;;;;5099882;28;20208;-83
2021/09/06 02:17:17;;;;;;;4.22;3.78;;;10.10;99.90;;;;;;5116553;28;20543;-85
2021/09/06 02:19:44;;;;;;;3.13;2.85;;;10.00;99.90;;;;;;5102780;28;20240;-85
2021/09/06 02:22:11;;;;;;;4.40;3.40;;;9.90;99.90;;;;;;5115852;28;20242;-86
2021/09/06 02:24:38;;;;;;;3.13;2.83;;;9.90;99.90;;;;;;5122465;28;20257;-85
2021/09/06 02:27:05;;;;;;;3.90;3.20;;;9.90;99.90;;;;;;5117807;28;20208;-86
2021/09/06 02:29:32;;;;;;;4.32;3.92;;;9.90;99.90;;;;;;5104091;28;20199;-85
2021/09/06 02:32:00;;;;;;;6.50;4.10;;;9.80;99.90;;;;;;5099319;28;20245;-86
2021/09/06 02:34:27;;;;;;;4.45;4.00;;;9.80;99.90;;;;;;5121143;28;20240;-86
2021/09/06 02:36:54;;;;;;;3.75;3.45;;;9.90;99.90;;;;;;5111401;28;20212;-84
2021/09/06 02:39:21;;;;;;;5.30;3.28;;;9.90;99.90;;;;;;5086339;28;20199;-85
2021/09/06 02:41:48;;;;;;;3.15;2.80;;;9.90;99.90;;;;;;5107120;28;20385;-85
2021/09/06 02:44:15;;;;;;;3.95;3.20;;;9.80;99.90;;;;;;5118102;28;20242;-86
2021/09/06 02:46:42;;;;;;;5.05;3.58;;;9.90;99.90;;;;;;5116278;28;20203;-84
2021/09/06 02:49:09;;;;;;;2.95;2.75;;;9.90;99.90;;;;;;5093143;28;20238;-85
2021/09/06 02:51:36;;;;;;;3.78;3.55;;;9.80;99.90;;;;;;5113032;28;20215;-86
2021/09/06 02:54:03;;;;;;;4.82;4.20;;;9.70;99.90;;;;;;5110504;28;20208;-84
2021/09/06 02:56:31;;;;;;;7.85;3.55;;;9.50;99.90;;;;;;5097196;28;20250;-85
2021/09/06 02:58:58;;;;;;;4.05;3.63;;;9.50;99.90;;;;;;5089234;28;20276;-85
2021/09/06 03:01:25;;;;;;;4.50;4.15;;;9.50;99.90;;;;;;5125262;27;20233;-85
2021/09/06 03:03:52;;;;;;;4.20;3.80;;;9.30;99.90;;;;;;5091494;28;20207;-84
2021/09/06 03:06:19;;;;;;;4.80;4.30;;;9.30;99.90;;;;;;5114901;28;20229;-86
2021/09/06 03:08:46;;;;;;;4.57;3.40;;;9.30;99.90;;;;;;5097502;28;20481;-85
2021/09/06 03:11:13;;;;;;;4.75;4.13;;;9.30;99.90;;;;;;5090492;28;20319;-83
2021/09/06 03:13:41;;;;;;;3.10;2.80;;;9.30;99.90;;;;;;5118301;28;20494;-84
2021/09/06 03:16:08;;;;;;;5.40;4.05;;;9.20;99.90;;;;;;5099937;28;20261;-85
2021/09/06 03:18:35;;;;;;;4.55;3.85;;;9.10;99.90;;;;;;5106650;28;20229;-84
2021/09/06 03:21:02;;;;;;;3.78;3.30;;;9.20;99.90;;;;;;5124296;28;20560;-83
2021/09/06 03:23:29;;;;;;;5.07;4.57;;;9.00;99.90;;;;;;5116462;28;20195;-83
2021/09/06 03:25:56;;;;;;;4.18;3.83;;;8.90;99.90;;;;;;5102000;28;20239;-83
2021/09/06 03:28:23;;;;;;;4.35;3.90;;;8.90;99.90;;;;;;5122832;28;20244;-84
2021/09/06 03:30:50;;;;;;;4.75;4.32;;;9.00;99.90;;;;;;5099915;28;20235;-84
2021/09/06 03:33:17;;;;;;;5.88;4.13;;;9.10;99.90;;;;;;5098349;28;20202;-85
2021/09/06 03:35:44;;;;;;;3.28;3.08;;;9.00;99.90;;;;;;5114433;28;20198;-84
2021/09/06 03:38:13;;;;;;;6.22;4.18;;;8.90;99.90;;;;;;5118994;28;20213;-85
2021/09/06 03:40:41;;;;;;;4.25;3.78;;;9.00;99.90;;;;;;5120785;28;20428;-85
2021/09/06 03:43:08;;;;;;;4.88;4.40;;;8.80;99.90;;;;;;5119225;28;20198;-84
2021/09/06 03:45:36;;;;;;;4.97;4.25;;;8.80;99.90;;;;;;5111178;27;20223;-85
2021/09/06 03:48:03;;;;;;;5.90;4.65;;;8.90;99.90;;;;;;5119230;28;20228;-84
2021/09/06 03:50:31;;;;;;;3.92;3.60;;;8.80;99.90;;;;;;5119747;28;20199;-85
2021/09/06 03:52:58;;;;;;;6.03;5.20;;;8.70;99.90;;;;;;5117947;28;20246;-84
2021/09/06 03:55:25;;;;;;;4.70;4.20;;;8.80;99.90;;;;;;5112327;28;20213;-85
2021/09/06 03:57:52;;;;;;;5.60;4.00;;;8.80;99.90;;;;;;5110607;28;20199;-84
2021/09/06 04:00:19;;;;;;;5.30;4.80;;;8.70;99.90;;;;;;5093174;28;20291;-85
2021/09/06 04:02:46;;;;;;;5.90;4.80;;;8.70;99.90;;;;;;5105416;28;20244;-83
2021/09/06 04:05:13;;;;;;;6.28;4.75;;;8.70;99.90;;;;;;5115665;28;20206;-85
2021/09/06 04:07:40;;;;;;;9.32;4.30;;;8.60;99.90;;;;;;5118181;28;20505;-85
2021/09/06 04:10:08;;;;;;;5.97;5.45;;;8.70;99.90;;;;;;5121743;28;20535;-85
2021/09/06 04:12:35;;;;;;;9.52;5.00;;;8.70;99.90;;;;;;5111543;28;20200;-83
2021/09/06 04:15:04;;;;;;;7.85;5.32;;;8.80;99.90;;;;;;5100686;28;20499;-83
2021/09/06 04:17:31;;;;;;;5.78;5.30;;;8.80;99.90;;;;;;5113379;28;20405;-84
2021/09/06 04:19:58;;;;;;;5.90;5.10;;;8.80;99.90;;;;;;5121148;28;20394;-84
2021/09/06 04:22:25;;;;;;;5.88;4.80;;;8.70;99.90;;;;;;5117063;28;20287;-85
2021/09/06 04:24:52;;;;;;;5.35;4.85;;;8.80;99.90;;;;;;5104195;28;20538;-83
2021/09/06 04:27:19;;;;;;;6.88;5.50;;;8.90;99.90;;;;;;5115359;28;20207;-84
2021/09/06 04:29:46;;;;;;;9.65;4.85;;;8.80;99.90;;;;;;5104803;28;20198;-85
2021/09/06 04:32:13;;;;;;;7.65;4.43;;;8.90;99.90;;;;;;5100053;28;20209;-84
2021/09/06 04:34:41;;;;;;;5.07;4.68;;;8.90;99.90;;;;;;5116194;28;20682;-84
2021/09/06 04:37:08;;;;;;;5.18;4.68;;;9.00;99.90;;;;;;5122561;28;20218;-84
2021/09/06 04:39:35;;;;;;;6.30;5.15;;;9.10;99.90;;;;;;5124609;28;20213;-84
2021/09/06 04:42:03;;;;;;;8.20;5.57;;;9.10;99.90;;;;;;5122879;28;20206;-86
2021/09/06 04:44:29;;;;;;;7.03;5.43;;;9.10;99.90;;;;;;5115562;28;20232;-84
2021/09/06 04:46:56;;;;;;;7.22;4.93;;;9.20;99.90;;;;;;5121448;28;20195;-84
2021/09/06 04:49:24;;;;;;;5.43;4.97;;;9.20;99.90;;;;;;5117491;28;20224;-84
2021/09/06 04:51:53;;;;;;;5.43;4.95;;;9.20;99.90;;;;;;5108138;28;20379;-86
2021/09/06 04:54:20;;;;;;;7.88;6.00;;;9.30;99.90;;;;;;5119578;28;20198;-85
2021/09/06 04:56:48;;;;;;;6.32;5.22;;;9.30;99.90;;;;;;5114047;28;20277;-83
2021/09/06 04:59:21;;;;;;;5.68;4.93;;;9.40;99.90;;;;;;5115989;28;20198;-84
2021/09/06 05:01:49;;;;;;;5.07;4.50;;;9.50;99.90;;;;;;5095140;28;20801;-84
2021/09/06 05:04:16;;;;;;;5.57;5.07;;;9.60;99.90;;;;;;5115667;28;20201;-84
2021/09/06 05:06:43;;;;;;;7.35;4.30;;;9.70;99.90;;;;;;5121204;28;20284;-86
2021/09/06 05:09:10;;;;;;;13.18;4.30;;;9.90;99.90;;;;;;5090466;28;20204;-84
2021/09/06 05:11:38;;;;;;;4.53;4.13;;;10.00;99.90;;;;;;5095401;28;20493;-85
2021/09/06 05:14:05;;;;;;;5.30;4.80;;;10.20;99.90;;;;;;5114684;28;20203;-84
2021/09/06 05:16:32;;;;;;;7.07;4.82;;;10.20;99.90;;;;;;5097493;28;20212;-85
2021/09/06 05:18:59;;;;;;;8.05;4.15;;;10.30;99.90;;;;;;5123074;28;20210;-84
2021/09/06 05:21:26;;;;;;;6.95;4.53;;;10.30;99.90;;;;;;5096445;28;20433;-85
2021/09/06 05:23:53;;;;;;;7.68;4.18;;;10.40;99.90;;;;;;5102018;28;20283;-84
2021/09/06 05:26:21;;;;;;;5.93;5.32;;;10.50;99.90;;;;;;5118863;28;20273;-85
2021/09/06 05:28:50;;;;;;;5.10;4.15;;;10.70;99.90;;;;;;5122163;28;20248;-84
2021/09/06 05:31:18;;;;;;;4.53;4.05;;;10.90;99.90;;;;;;5121557;28;20197;-85
2021/09/06 05:33:45;;;;;;;6.15;4.82;;;11.00;99.90;;;;;;5116010;28;20451;-85
2021/09/06 05:36:13;;;;;;;8.45;5.43;;;11.20;99.90;;;;;;5122018;28;20514;-87
2021/09/06 05:38:40;;;;;;;5.38;4.80;;;11.30;99.90;;;;;;5117246;28;20462;-84
2021/09/06 05:41:07;;;;;;;4.45;4.05;;;11.50;99.90;;;;;;5120939;28;20204;-83
2021/09/06 05:43:35;;;;;;;4.38;3.90;;;11.70;99.90;;;;;;5116753;28;20217;-84
2021/09/06 05:46:02;;;;;;;4.38;3.97;;;12.00;99.90;;;;;;5109967;27;20224;-83
2021/09/06 05:48:30;;;;;;;5.63;4.97;;;12.10;99.90;;;;;;5103327;28;20231;-84
2021/09/06 05:50:57;;;;;;;4.35;3.95;;;12.20;99.90;;;;;;5114148;28;20209;-84
2021/09/06 05:53:24;;;;;;;4.95;4.00;;;12.40;99.90;;;;;;5115007;28;20247;-84
2021/09/06 05:55:51;;;;;;;4.68;3.97;;;12.50;99.90;;;;;;5097243;28;20258;-85
2021/09/06 05:58:18;;;;;;;4.97;3.80;;;12.90;99.90;;;;;;5102186;28;20464;-84
2021/09/06 06:00:45;;;;;;;4.13;3.75;;;13.30;99.90;;;;;;5113636;28;20252;-84
2021/09/06 06:03:12;;;;;;;5.63;3.60;;;13.90;99.90;;;;;;5119408;28;20220;-85
2021/09/06 06:05:40;;;;;;;5.03;4.53;;;14.60;99.90;;;;;;5116744;28;20217;-84
2021/09/06 06:08:07;;;;;;;4.25;3.95;;;15.00;99.90;;;;;;5110488;28;20298;-83
2021/09/06 06:10:34;;;;;;;4.30;3.90;;;15.10;99.90;;;;;;5099655;28;20195;-83
2021/09/06 06:13:01;;;;;;;4.77;4.37;;;15.30;99.90;;;;;;5096974;28;20436;-85
2021/09/06 06:15:28;;;;;;;4.87;4.47;;;15.50;99.90;;;;;;5118312;28;20420;-84
2021/09/06 06:17:55;;;;;;;6.87;5.33;;;16.00;99.90;;;;;;5094698;28;20534;-84
2021/09/06 06:20:23;;;;;;;5.17;4.60;;;16.60;99.90;;;;;;5110619;28;20445;-85
2021/09/06 06:22:51;;;;;;;6.23;5.67;;;17.10;99.90;;;;;;5104472;28;20622;-87
2021/09/06 06:25:18;;;;;;;5.67;5.07;;;18.20;99.90;;;;;;5117113;28;20521;-86
2021/09/06 06:27:45;;;;;;;8.23;5.13;;;19.20;99.90;;;;;;5111036;28;20432;-87
2021/09/06 06:30:14;;;;;;;6.30;5.80;;;19.90;99.90;;;;;;5122359;28;20654;-87
2021/09/06 06:32:41;;;;;;;5.97;5.60;;;21.00;99.90;;;;;;5104434;28;20418;-84
2021/09/06 06:35:09;;;;;;;6.17;5.67;;;22.80;98.60;;;;;;5108426;28;20456;-86
2021/09/06 06:37:36;;;;;;;6.47;6.07;;;23.40;95.80;;;;;;5125744;28;20453;-85
2021/09/06 06:40:04;;;;;;;5.90;5.60;;;23.50;94.60;;;;;;5125516;28;20438;-85
2021/09/06 06:42:31;;;;;;;7.37;6.80;;;23.30;94.30;;;;;;5100130;28;20612;-84
2021/09/06 06:44:58;;;;;;;6.73;6.33;;;23.80;93.30;;;;;;5110275;28;20426;-88
2021/09/06 06:47:25;;;;;;;6.90;6.50;;;23.30;92.70;;;;;;5102545;27;20478;-85
2021/09/06 06:49:52;;;;;;;7.60;7.00;;;23.30;93.50;;;;;;5123274;27;20459;-87
2021/09/06 06:52:21;;;;;;;6.90;6.40;;;24.20;92.00;;;;;;5115566;28;20450;-88
2021/09/06 06:54:48;;;;;;;6.47;6.07;;;24.50;90.50;;;;;;5102742;28;20480;-86
2021/09/06 06:57:18;;;;;;;7.23;6.73;;;24.30;91.20;;;;;;5113133;28;20430;-86
2021/09/06 06:59:46;;;;;;;7.17;6.77;;;25.80;87.20;;;;;;5118736;28;20494;-85
2021/09/06 07:02:13;;;;;;;8.20;7.40;;;26.10;85.70;;;;;;5125380;28;20442;-85
2021/09/06 07:04:40;;;;;;;8.30;7.70;;;27.10;81.20;;;;;;5102855;28;20436;-86
2021/09/06 07:07:08;;;;;;;7.90;7.40;;;26.40;81.90;;;;;;5118106;28;20482;-88
2021/09/06 07:09:35;;;;;;;7.33;6.73;;;25.20;84.60;;;;;;5096727;28;20439;-87
2021/09/06 07:12:04;;;;;;;8.60;8.00;;;25.10;83.20;;;;;;5109413;28;20434;-89
2021/09/06 07:14:31;;;;;;;7.70;6.87;;;24.60;85.80;;;;;;5109384;28;20472;-89
2021/09/06 07:16:58;;;;;;;7.27;6.77;;;25.20;84.00;;;;;;5091302;28;20409;-87
2021/09/06 07:19:26;;;;;;;7.40;6.80;;;25.00;84.70;;;;;;5109175;28;20640;-90
2021/09/06 07:21:54;;;;;;;8.00;7.50;;;25.70;82.40;;;;;;5101685;28;20644;-89
2021/09/06 07:24:25;;;;;;;7.00;6.60;;;25.60;81.40;;;;;;5102717;28;20432;-90
2021/09/06 07:26:52;;;;;;;7.23;6.80;;;25.20;82.00;;;;;;5109147;28;20511;-89
2021/09/06 07:29:19;;;;;;;7.27;6.77;;;24.90;82.30;;;;;;5115683;28;20443;-88
2021/09/06 07:31:46;;;;;;;7.23;6.83;;;25.60;81.10;;;;;;5114042;28;20480;-90
2021/09/06 07:34:15;;;;;;;8.10;7.20;;;26.00;78.80;;;;;;5108579;28;20636;-89
2021/09/06 07:36:42;;;;;;;8.37;7.87;;;26.40;77.40;;;;;;5106747;28;20652;-88
2021/09/06 07:39:11;;;;;;;8.10;7.50;;;27.60;75.70;;;;;;5109496;28;20627;-88
2021/09/06 07:41:38;;;;;;;7.40;6.80;;;28.50;73.80;;;;;;5110658;28;20435;-84
2021/09/06 07:44:05;;;;;;;8.07;7.47;;;27.90;73.40;;;;;;5125897;28;20436;-86
2021/09/06 07:46:32;;;;;;;8.37;7.87;;;27.60;74.40;;;;;;5116197;28;20470;-88
2021/09/06 07:49:00;;;;;;;7.33;6.90;;;27.20;75.80;;;;;;5126266;28;20460;-89
2021/09/06 07:51:28;;;;;;;6.83;6.53;;;27.50;72.60;;;;;;5107251;28;20452;-90
2021/09/06 07:53:55;;;;;;;6.77;6.40;;;27.00;71.40;;;;;;5116995;28;20506;-91
2021/09/06 07:56:22;;;;;;;6.73;6.33;;;26.70;72.30;;;;;;5102262;28;20447;-89
2021/09/06 07:58:49;;;;;;;6.80;6.40;;;27.10;71.50;;;;;;5103782;28;20443;-89
2021/09/06 08:01:21;;;;;;;6.77;6.27;;;26.70;70.80;;;;;;5096492;28;20495;-89
2021/09/06 08:03:48;;;;;;;5.77;5.27;;;26.30;71.60;;;;;;5119507;28;20777;-87
2021/09/06 08:06:16;;;;;;;6.10;5.77;;;26.30;73.30;;;;;;5108649;28;20473;-88
2021/09/06 08:08:43;;;;;;;6.23;5.83;;;26.90;70.60;;;;;;5118300;28;20762;-86
2021/09/06 08:11:10;;;;;;;6.17;5.57;;;26.90;70.30;;;;;;5102461;28;20588;-87
2021/09/06 08:13:37;;;;;;;6.77;6.10;;;27.40;67.90;;;;;;5105027;28;20497;-86
2021/09/06 08:16:05;;;;;;;6.53;6.13;;;28.40;67.70;;;;;;5110791;28;20450;-87
2021/09/06 08:18:32;;;;;;;6.50;6.20;;;29.80;64.40;;;;;;5119692;27;20419;-87
2021/09/06 08:20:59;;;;;;;6.20;5.90;;;30.70;61.10;;;;;;5111572;28;20480;-90
2021/09/06 08:23:26;;;;;;;6.20;5.87;;;29.60;60.70;;;;;;5102585;28;20436;-88
2021/09/06 08:25:55;;;;;;;7.23;6.93;;;28.40;62.60;;;;;;5108038;28;20465;-89
2021/09/06 08:28:22;;;;;;;5.97;5.77;;;29.10;62.50;;;;;;5117896;28;20475;-86
2021/09/06 08:30:50;;;;;;;6.80;6.50;;;29.30;60.40;;;;;;5118602;28;20434;-89
2021/09/06 08:33:17;;;;;;;5.60;5.30;;;29.50;59.30;;;;;;5094551;28;20460;-88
2021/09/06 08:35:46;;;;;;;6.93;6.53;;;29.30;58.70;;;;;;5106640;28;20457;-88
2021/09/06 08:38:15;;;;;;;6.23;5.93;;;29.80;59.60;;;;;;5113191;28;20482;-84
2021/09/06 08:40:42;;;;;;;5.83;5.53;;;29.60;57.10;;;;;;5123397;28;20434;-86
2021/09/06 08:43:10;;;;;;;6.23;5.93;;;27.40;60.70;;;;;;5120340;28;20605;-86
2021/09/06 08:45:38;;;;;;;6.00;5.70;;;26.30;61.20;;;;;;5106161;28;20517;-87
2021/09/06 08:48:05;;;;;;;5.83;5.53;;;26.80;62.10;;;;;;5091855;28;20805;-87
2021/09/06 08:50:34;;;;;;;5.87;5.63;;;27.60;60.00;;;;;;5115544;28;20486;-86
2021/09/06 08:53:02;;;;;;;6.03;5.63;;;27.10;60.00;;;;;;5117559;28;20455;-86
2021/09/06 08:55:29;;;;;;;5.70;5.50;;;27.20;60.60;;;;;;5122583;28;20432;-88
2021/09/06 08:57:57;;;;;;;5.73;5.50;;;27.20;60.70;;;;;;5106705;28;20411;-87
2021/09/06 09:00:29;;;;;;;5.67;5.33;;;27.40;58.10;;;;;;5099347;28;20439;-85
2021/09/06 09:02:59;;;;;;;5.73;5.37;;;26.50;60.40;;;;;;5120011;27;20671;-85
2021/09/06 09:05:56;;;;;;;5.40;5.10;;;26.20;61.00;;;;;;5097472;28;20476;-86
2021/09/06 09:08:23;;;;;;;6.80;6.37;;;26.10;60.90;;;;;;5115860;28;20678;-87
2021/09/06 09:10:55;;;;;;;5.00;4.70;;;26.20;61.30;;;;;;5098386;28;20481;-85
2021/09/06 09:13:22;;;;;;;5.67;5.37;;;26.60;61.20;;;;;;5102057;28;20423;-88
2021/09/06 09:15:54;;;;;;;5.33;5.00;;;27.20;61.90;;;;;;5118279;28;20442;-87
2021/09/06 09:18:25;;;;;;;5.77;5.57;;;26.80;61.20;;;;;;5118366;28;20442;-85
2021/09/06 09:21:14;;;;;;;5.70;5.40;;;26.00;61.40;;;;;;5108956;28;20434;-87
2021/09/06 09:23:48;;;;;;;6.10;5.70;;;24.70;64.30;;;;;;5110250;28;20508;-89
2021/09/06 09:26:16;;;;;;;5.40;5.10;;;23.60;68.80;;;;;;5102256;28;20476;-88
2021/09/06 09:28:45;;;;;;;5.43;5.13;;;22.50;71.20;;;;;;5124277;28;20643;-90
2021/09/06 09:31:20;;;;;;;6.13;5.63;;;21.60;73.00;;;;;;5105745;28;20431;-87
2021/09/06 09:33:54;;;;;;;4.90;4.70;;;21.40;73.80;;;;;;5113456;28;20453;-84
2021/09/06 09:36:27;;;;;;;5.90;5.57;;;21.00;74.90;;;;;;5117257;28;20434;-85
2021/09/06 09:39:17;;;;;;;5.00;4.70;;;20.70;73.80;;;;;;5121407;28;20428;-85
2021/09/06 09:41:51;;;;;;;5.47;5.00;;;20.50;74.00;;;;;;5125344;28;20477;-85
2021/09/06 09:44:29;;;;;;;4.90;4.70;;;20.20;75.90;;;;;;5093802;28;20439;-88
2021/09/06 09:47:01;;;;;;;4.83;4.63;;;20.20;76.70;;;;;;5116714;28;20446;-88
2021/09/06 09:49:31;;;;;;;4.80;4.60;;;20.10;76.50;;;;;;5098707;28;20484;-86
2021/09/06 09:51:59;;;;;;;5.60;5.30;;;20.30;77.10;;;;;;5123550;28;20427;-85
2021/09/06 09:54:26;;;;;;;5.40;5.10;;;20.30;77.90;;;;;;5120246;28;20450;-87
2021/09/06 09:56:55;;;;;;;5.90;5.43;;;20.20;79.10;;;;;;5101679;28;20451;-87
2021/09/06 09:59:22;;;;;;;4.97;4.77;;;20.20;78.10;;;;;;5091281;28;20432;-86
2021/09/06 10:01:59;;;;;;;7.17;6.37;;;20.10;79.90;;;;;;5121817;28;20757;-87
2021/09/06 10:04:32;;;;;;;4.83;4.60;;;20.40;78.80;;;;;;5117181;28;20405;-87
2021/09/06 10:07:01;;;;;;;4.17;4.03;;;20.30;79.50;;;;;;5102476;28;20479;-89
2021/09/06 10:09:40;;;;;;;4.60;4.40;;;20.20;79.60;;;;;;5107536;28;20443;-88
2021/09/06 10:12:08;;;;;;;4.90;4.70;;;20.00;80.80;;;;;;5093884;28;20434;-85
2021/09/06 10:14:35;;;;;;;4.93;4.60;;;20.00;82.30;;;;;;5115786;28;20492;-87
2021/09/06 10:17:09;;;;;;;5.80;5.40;;;20.10;79.10;;;;;;5119471;28;20471;-89
2021/09/06 10:19:40;;;;;;;4.53;4.33;;;20.30;78.70;;;;;;5100511;28;20427;-88
2021/09/06 10:22:25;;;;;;;4.80;4.40;;;20.40;78.50;;;;;;5123136;28;20437;-88
2021/09/06 10:25:01;;;;;;;4.60;4.30;;;20.30;81.40;;;;;;5099688;28;20410;-85
2021/09/06 10:27:31;;;;;;;4.20;4.00;;;20.30;79.50;;;;;;5092782;28;20471;-86
2021/09/06 10:30:11;;;;;;;4.40;4.20;;;20.40;77.40;;;;;;5101152;28;20435;-87
2021/09/06 10:32:42;;;;;;;4.97;4.60;;;20.40;78.50;;;;;;5086797;28;20567;-85
2021/09/06 10:35:25;;;;;;;4.40;4.20;;;20.20;78.90;;;;;;5114069;28;20414;-87
2021/09/06 10:38:13;;;;;;;4.20;4.00;;;20.40;80.60;;;;;;5108541;28;20473;-86
2021/09/06 10:40:43;;;;;;;5.50;5.10;;;20.50;79.30;;;;;;5100394;28;20452;-85
2021/09/06 10:43:12;;;;;;;4.37;4.17;;;20.50;78.40;;;;;;5101343;28;20412;-86
2021/09/06 10:45:42;;;;;;;4.80;4.60;;;20.50;81.70;;;;;;5100831;28;20410;-84
2021/09/06 10:48:19;;;;;;;4.57;4.37;;;20.30;78.50;;;;;;5121228;28;20488;-85
2021/09/06 10:50:49;;;;;;;4.60;4.30;;;20.40;77.40;;;;;;5122965;28;20524;-85
2021/09/06 10:53:20;;;;;;;6.00;5.40;;;20.50;79.70;;;;;;5123356;28;20568;-87
2021/09/06 10:55:54;;;;;;;4.60;4.20;;;20.60;78.00;;;;;;5121563;28;20530;-88
2021/09/06 10:58:25;;;;;;;4.20;4.00;;;20.50;78.50;;;;;;5104953;28;20464;-87
2021/09/06 11:00:55;;;;;;;5.47;3.93;;;20.30;79.40;;;;;;5105249;28;20438;-86
2021/09/06 11:03:24;;;;;;;4.07;3.77;;;20.40;80.30;;;;;;5096089;28;20459;-86
2021/09/06 11:05:54;;;;;;;4.83;4.53;;;20.50;80.30;;;;;;5100599;28;20436;-87
2021/09/06 11:08:29;;;;;;;3.93;3.70;;;20.40;81.60;;;;;;5114910;28;20489;-86
2021/09/06 11:10:59;;;;;;;4.13;3.93;;;20.60;80.90;;;;;;5118160;28;20441;-84
2021/09/06 11:13:34;;;;;;;4.47;4.17;;;20.60;78.70;;;;;;5116550;28;20439;-86
2021/09/06 11:16:07;;;;;;;4.30;4.00;;;20.70;80.30;;;;;;5101573;28;20452;-88
2021/09/06 11:18:40;;;;;;;4.30;4.10;;;20.80;78.70;;;;;;5123546;28;20413;-86
2021/09/06 11:21:07;;;;;;;4.23;4.03;;;20.90;77.70;;;;;;5122778;28;20420;-84
2021/09/06 11:23:37;;;;;;;4.10;3.90;;;20.80;77.30;;;;;;5102556;28;20460;-84
2021/09/06 11:26:07;;;;;;;4.83;4.50;;;20.70;76.40;;;;;;5118925;27;20438;-85
2021/09/06 11:28:43;;;;;;;4.30;4.10;;;20.70;78.20;;;;;;5100402;28;20514;-86
2021/09/06 11:31:20;;;;;;;4.67;4.20;;;20.80;75.20;;;;;;5124158;27;20438;-88
2021/09/06 11:33:57;;;;;;;92.50;87.10;;;20.80;77.30;;;;;;5112500;22;20447;-59
2021/09/06 11:36:24;;;;;;;89.93;84.63;;;20.80;77.60;;;;;;5062139;28;20770;-60
2021/09/06 11:38:52;;;;;;;27.93;26.43;;;20.80;75.40;;;;;;5069634;28;20424;-60
2021/09/06 11:41:22;;;;;;;60.70;57.50;;;20.70;76.00;;;;;;5074857;28;20728;-61
2021/09/06 11:43:51;;;;;;;57.83;54.77;;;20.70;77.00;;;;;;5081328;28;20453;-57
2021/09/06 11:46:18;;;;;;;56.80;53.90;;;20.40;74.30;;;;;;5084325;28;20425;-61
2021/09/06 11:48:49;;;;;;;52.27;49.73;;;20.40;77.70;;;;;;5083872;28;20430;-61
2021/09/06 11:51:16;;;;;;;51.67;49.17;;;20.40;78.50;;;;;;5084712;28;20433;-60
2021/09/06 11:53:57;;;;;;;79.30;74.70;;;20.30;79.00;;;;;;5084310;28;20423;-59
2021/09/06 11:56:24;;;;;;;77.40;73.10;;;20.40;80.80;;;;;;5084177;28;20620;-60
2021/09/06 11:58:56;;;;;;;76.33;72.07;;;20.70;80.70;;;;;;5084016;28;20399;-58
2021/09/06 12:01:23;;;;;;;76.53;72.33;;;20.90;78.60;;;;;;5083900;28;20475;-61
2021/09/06 12:04:02;;;;;;;4.77;4.30;;;20.90;77.90;;;;;;5078354;28;20473;-59
2021/09/06 12:06:29;;;;;;;4.50;4.20;;;20.90;79.90;;;;;;5072458;28;20464;-61
2021/09/06 12:08:58;;;;;;;79.27;74.80;;;20.90;76.00;;;;;;5078209;28;20397;-56
2021/09/06 12:11:49;;;;;;;4.80;4.50;;;20.80;77.30;;;;;;5077149;28;20425;-60
2021/09/06 12:14:16;;;;;;;5.00;4.70;;;20.70;74.90;;;;;;5076841;28;20490;-61
2021/09/06 12:16:43;;;;;;;5.27;4.87;;;20.70;75.60;;;;;;5075436;28;20483;-59
2021/09/06 12:19:16;;;;;;;4.33;4.13;;;20.80;75.00;;;;;;5078119;28;20412;-58
2021/09/06 12:21:45;;;;;;;4.00;3.70;;;20.80;78.80;;;;;;5076964;28;20482;-57
2021/09/06 12:24:13;;;;;;;4.73;4.53;;;20.80;76.30;;;;;;5078344;28;20439;-60
2021/09/06 12:26:42;;;;;;;5.17;4.87;;;20.80;76.50;;;;;;5078783;28;20448;-60
2021/09/06 12:29:10;;;;;;;4.10;3.90;;;20.70;76.30;;;;;;5078180;28;20480;-59
2021/09/06 12:31:43;;;;;;;4.77;4.47;;;20.80;76.70;;;;;;5078583;28;20571;-57
2021/09/06 12:34:12;;;;;;;4.93;4.73;;;20.80;76.90;;;;;;5078082;28;20750;-58
2021/09/06 12:36:40;;;;;;;4.60;4.30;;;20.80;76.10;;;;;;5079061;28;20442;-57
2021/09/06 12:39:08;;;;;;;5.50;5.10;;;20.70;77.40;;;;;;5078669;28;20449;-59
2021/09/06 12:41:35;;;;;;;4.83;4.53;;;20.70;76.30;;;;;;5078946;28;20424;-58
2021/09/06 12:44:02;;;;;;;5.10;4.80;;;20.60;76.20;;;;;;5078139;28;20687;-57
2021/09/06 12:46:30;;;;;;;5.07;4.77;;;20.50;77.10;;;;;;5078656;28;20445;-59
2021/09/06 12:48:57;;;;;;;4.97;4.77;;;20.70;76.90;;;;;;5078867;28;20438;-60
2021/09/06 12:51:24;;;;;;;4.93;4.63;;;20.90;76.40;;;;;;5078220;28;20457;-59
2021/09/06 12:53:51;;;;;;;4.30;4.10;;;21.00;75.70;;;;;;5077986;28;20443;-57
2021/09/06 12:56:18;;;;;;;5.47;5.07;;;21.00;74.50;;;;;;5077808;28;20561;-58